Time;durP1;ratioP1;P1;durP2;ratioP2;P2;SDS_P1;SDS_P2;PMS_P1;PMS_P2;Temp;Humidity;BMP_temperature;BMP_pressure;BME280_temperature;BME280_humidity;BME280_pressure;Samples;Min_cycle;Max_cycle;Signal;HPM_P1;HPM_P2
2023/06/23 00:00:20;;;;;;;3.10;1.60;;;23.40;67.10;;;;;;2308291;55;21796;-76
2023/06/23 00:02:46;;;;;;;2.90;1.37;;;23.40;67.20;;;;;;2546965;54;20925;-74
2023/06/23 00:05:13;;;;;;;3.12;1.83;;;23.40;67.20;;;;;;2308345;55;20988;-75
2023/06/23 00:07:39;;;;;;;3.12;1.83;;;23.30;67.00;;;;;;2309370;55;21446;-75
2023/06/23 00:10:06;;;;;;;3.50;1.65;;;23.30;67.00;;;;;;2532839;54;20940;-74
2023/06/23 00:12:37;;;;;;;3.15;1.55;;;23.30;67.00;;;;;;2522487;54;20990;-75
2023/06/23 00:15:07;;;;;;;3.37;1.87;;;23.20;66.90;;;;;;2543582;54;20948;-74
2023/06/23 00:17:34;;;;;;;3.37;2.00;;;23.20;67.00;;;;;;2301489;55;20985;-74
2023/06/23 00:20:01;;;;;;;3.20;1.70;;;23.20;67.10;;;;;;2544257;54;20996;-74
2023/06/23 00:22:27;;;;;;;4.07;2.10;;;23.10;67.00;;;;;;2530262;54;21009;-75
2023/06/23 00:24:54;;;;;;;3.05;1.67;;;23.10;67.10;;;;;;2545805;54;21734;-74
2023/06/23 00:27:20;;;;;;;3.87;1.90;;;23.10;67.00;;;;;;2546139;54;20908;-75
2023/06/23 00:29:47;;;;;;;3.30;1.70;;;23.10;66.90;;;;;;2302471;55;20949;-75
2023/06/23 00:32:14;;;;;;;3.30;1.50;;;23.10;66.80;;;;;;2303817;55;20983;-74
2023/06/23 00:34:41;;;;;;;3.47;2.03;;;23.00;66.70;;;;;;2546190;54;20932;-74
2023/06/23 00:37:09;;;;;;;2.85;1.67;;;23.00;66.90;;;;;;2545793;54;21008;-74
2023/06/23 00:39:35;;;;;;;3.00;1.70;;;23.00;66.90;;;;;;2546159;54;20935;-73
2023/06/23 00:42:03;;;;;;;4.20;2.22;;;22.90;66.90;;;;;;2307010;55;21832;-74
2023/06/23 00:44:30;;;;;;;3.92;2.10;;;22.90;67.10;;;;;;2546195;54;20980;-74
2023/06/23 00:46:56;;;;;;;3.35;1.90;;;22.90;67.20;;;;;;2307092;55;21048;-74
2023/06/23 00:49:23;;;;;;;3.17;1.70;;;22.90;67.30;;;;;;2307144;55;20988;-73
2023/06/23 00:51:51;;;;;;;3.35;2.03;;;22.90;67.30;;;;;;2305647;55;20920;-75
2023/06/23 00:54:17;;;;;;;3.72;2.17;;;22.90;67.30;;;;;;2546298;54;21051;-73
2023/06/23 00:56:44;;;;;;;3.62;1.83;;;22.90;67.40;;;;;;2545081;54;20964;-73
2023/06/23 00:59:10;;;;;;;2.97;1.67;;;22.90;67.40;;;;;;2538379;54;20977;-75
2023/06/23 01:01:37;;;;;;;3.17;1.83;;;22.90;67.40;;;;;;2541642;54;20917;-75
2023/06/23 01:04:04;;;;;;;3.08;1.77;;;22.80;67.30;;;;;;2307024;55;20936;-74
2023/06/23 01:06:47;;;;;;;3.25;1.60;;;22.80;67.40;;;;;;2307879;55;20944;-76
2023/06/23 01:09:38;;;;;;;3.50;1.73;;;22.90;67.30;;;;;;2546176;54;20928;-75
2023/06/23 01:12:21;;;;;;;3.50;1.95;;;22.80;67.20;;;;;;2533517;54;20971;-74
2023/06/23 01:16:14;;;;;;;3.55;1.95;;;22.90;67.30;;;;;;2281538;56;20956;-74
2023/06/23 01:19:00;;;;;;;3.33;1.80;;;22.90;67.20;;;;;;2546825;54;20916;-74
2023/06/23 01:28:45;;;;;;;3.42;1.90;;;22.80;67.50;;;;;;2546678;54;20920;-74
2023/06/23 01:31:18;;;;;;;3.10;1.40;;;22.80;67.10;;;;;;2307884;55;21025;-74
2023/06/23 01:33:48;;;;;;;5.20;2.12;;;22.80;67.50;;;;;;2534464;54;20989;-75
2023/06/23 01:36:23;;;;;;;4.10;2.12;;;22.80;67.70;;;;;;2300066;55;20908;-74
2023/06/23 01:38:52;;;;;;;4.20;2.40;;;22.80;67.90;;;;;;2287887;55;21014;-73
2023/06/23 01:41:23;;;;;;;3.87;2.33;;;22.70;67.80;;;;;;2265224;56;20952;-74
2023/06/23 01:43:53;;;;;;;3.47;2.08;;;22.70;67.90;;;;;;2474149;55;20954;-73
2023/06/23 01:46:25;;;;;;;4.47;2.28;;;22.70;68.00;;;;;;2525366;54;20946;-72
2023/06/23 01:48:57;;;;;;;3.17;1.80;;;22.70;68.00;;;;;;2287749;55;21093;-73
2023/06/23 01:51:25;;;;;;;5.87;2.58;;;22.70;68.00;;;;;;2292664;55;21858;-74
2023/06/23 01:53:52;;;;;;;3.87;2.08;;;22.70;68.10;;;;;;2514066;54;21006;-74
2023/06/23 01:56:18;;;;;;;3.75;2.12;;;22.70;68.10;;;;;;2291614;56;20954;-75
2023/06/23 01:58:45;;;;;;;3.30;1.87;;;22.70;68.10;;;;;;2544414;54;20958;-75
2023/06/23 02:01:11;;;;;;;3.92;2.42;;;22.70;68.10;;;;;;2553087;54;20930;-76
2023/06/23 02:03:38;;;;;;;6.00;2.80;;;22.70;68.20;;;;;;2313618;55;20967;-76
2023/06/23 02:06:04;;;;;;;4.45;2.72;;;22.70;68.20;;;;;;2553735;54;21403;-74
2023/06/23 02:08:31;;;;;;;3.30;1.75;;;22.70;68.20;;;;;;2313369;55;21051;-76
2023/06/23 02:10:57;;;;;;;4.45;2.20;;;22.70;68.20;;;;;;2552119;54;21008;-74
2023/06/23 02:13:24;;;;;;;3.05;1.87;;;22.70;68.10;;;;;;2313377;55;21695;-74
2023/06/23 02:15:50;;;;;;;3.37;1.90;;;22.70;68.10;;;;;;2552361;54;21742;-74
2023/06/23 02:18:17;;;;;;;3.75;2.22;;;22.70;68.10;;;;;;2553519;54;20931;-74
2023/06/23 02:20:48;;;;;;;5.68;3.10;;;22.70;68.10;;;;;;2552794;54;20999;-75
2023/06/23 02:23:14;;;;;;;4.60;2.53;;;22.70;68.20;;;;;;2313658;55;21050;-75
2023/06/23 02:25:41;;;;;;;3.87;2.40;;;22.70;68.20;;;;;;2535271;54;21065;-76
2023/06/23 02:28:08;;;;;;;5.18;2.30;;;22.70;68.10;;;;;;2542862;54;21075;-74
2023/06/23 02:30:36;;;;;;;5.07;2.25;;;22.70;68.10;;;;;;2552288;54;20992;-76
2023/06/23 02:33:03;;;;;;;3.25;2.03;;;22.70;68.10;;;;;;2292418;55;20943;-74
2023/06/23 02:35:32;;;;;;;4.53;2.83;;;22.70;68.10;;;;;;2551956;54;20980;-76
2023/06/23 02:38:03;;;;;;;4.43;2.85;;;22.70;68.10;;;;;;2551783;54;21900;-74
2023/06/23 02:40:31;;;;;;;4.70;2.90;;;22.70;68.10;;;;;;2313560;55;20963;-74
2023/06/23 02:43:18;;;;;;;4.12;2.45;;;22.70;68.10;;;;;;2552410;54;21559;-74
2023/06/23 02:45:47;;;;;;;4.22;2.17;;;22.70;68.00;;;;;;2553299;54;21006;-75
2023/06/23 02:48:20;;;;;;;3.53;2.22;;;22.70;68.20;;;;;;2554052;54;20980;-76
2023/06/23 02:50:46;;;;;;;3.55;2.15;;;22.70;68.20;;;;;;2552762;54;20927;-73
2023/06/23 02:53:22;;;;;;;5.75;2.92;;;22.60;68.10;;;;;;2313205;55;21027;-74
2023/06/23 02:56:00;;;;;;;3.30;2.10;;;22.70;68.20;;;;;;2553023;54;20928;-76
2023/06/23 02:58:27;;;;;;;5.62;2.70;;;22.60;68.20;;;;;;2553293;54;21022;-74
2023/06/23 03:00:53;;;;;;;3.75;2.33;;;22.60;68.10;;;;;;2553255;54;20931;-74
2023/06/23 03:03:20;;;;;;;3.78;2.03;;;22.60;68.10;;;;;;2313339;55;21015;-76
2023/06/23 03:05:49;;;;;;;4.45;3.00;;;22.60;68.00;;;;;;2553177;54;20980;-73
2023/06/23 03:08:15;;;;;;;3.67;2.10;;;22.60;68.00;;;;;;2314036;55;20955;-74
2023/06/23 03:10:42;;;;;;;4.55;3.05;;;22.60;68.10;;;;;;2297020;55;21017;-75
2023/06/23 03:13:08;;;;;;;4.18;2.70;;;22.60;68.20;;;;;;2523106;54;20908;-75
2023/06/23 03:15:36;;;;;;;4.10;2.60;;;22.60;68.20;;;;;;2553214;54;21470;-73
2023/06/23 03:18:16;;;;;;;4.28;3.08;;;22.60;68.20;;;;;;2313082;55;20979;-75
2023/06/23 03:20:47;;;;;;;4.82;3.05;;;22.60;68.10;;;;;;2313547;55;20927;-74
2023/06/23 03:23:16;;;;;;;4.22;2.80;;;22.50;68.00;;;;;;2313518;55;21071;-74
2023/06/23 03:25:46;;;;;;;4.80;2.72;;;22.50;68.10;;;;;;2313283;55;20979;-73
2023/06/23 03:28:19;;;;;;;5.93;2.87;;;22.50;68.10;;;;;;2552856;54;21014;-73
2023/06/23 03:31:08;;;;;;;3.85;2.55;;;22.50;68.20;;;;;;2313505;55;20944;-75
2023/06/23 03:33:40;;;;;;;2.92;1.92;;;22.50;67.90;;;;;;2553736;54;20967;-72
2023/06/23 03:36:28;;;;;;;4.72;3.45;;;22.50;68.10;;;;;;2553480;54;20967;-73
2023/06/23 03:39:38;;;;;;;6.20;3.55;;;22.40;68.10;;;;;;2553450;54;21970;-72
2023/06/23 03:42:05;;;;;;;4.03;2.60;;;22.40;67.90;;;;;;2313462;55;20968;-76
2023/06/23 03:44:33;;;;;;;5.62;3.03;;;22.40;68.20;;;;;;2313075;55;21413;-74
2023/06/23 03:47:06;;;;;;;5.68;3.58;;;22.40;68.20;;;;;;2298777;56;21535;-74
2023/06/23 03:49:37;;;;;;;4.85;3.60;;;22.40;68.30;;;;;;2550104;54;20932;-74
2023/06/23 03:52:05;;;;;;;5.82;3.58;;;22.40;68.40;;;;;;2553650;54;20928;-74
2023/06/23 03:54:33;;;;;;;5.75;4.37;;;22.40;68.40;;;;;;2314576;55;20924;-74
2023/06/23 03:57:00;;;;;;;8.25;5.53;;;22.40;68.50;;;;;;2313583;55;20939;-74
2023/06/23 03:59:27;;;;;;;7.40;5.75;;;22.30;68.40;;;;;;2313712;55;20940;-73
2023/06/23 04:01:54;;;;;;;6.85;4.95;;;22.30;68.40;;;;;;2553724;54;21427;-74
2023/06/23 04:04:24;;;;;;;9.02;5.80;;;22.30;68.50;;;;;;2313898;55;20991;-74
2023/06/23 04:06:51;;;;;;;9.60;4.40;;;22.30;68.50;;;;;;2313563;55;20943;-73
2023/06/23 04:09:19;;;;;;;6.90;5.35;;;22.30;68.60;;;;;;2313467;55;21002;-73
2023/06/23 04:11:46;;;;;;;7.15;5.35;;;22.30;68.60;;;;;;2314014;55;21006;-73
2023/06/23 04:14:13;;;;;;;7.35;6.15;;;22.30;68.70;;;;;;2553429;54;20948;-73
2023/06/23 04:16:42;;;;;;;6.32;4.97;;;22.30;68.80;;;;;;2550334;54;20960;-73
2023/06/23 04:19:10;;;;;;;8.38;5.80;;;22.30;68.80;;;;;;2530339;54;21404;-74
2023/06/23 04:21:38;;;;;;;10.70;6.20;;;22.30;68.80;;;;;;2313482;55;20995;-76
2023/06/23 04:24:05;;;;;;;7.53;6.18;;;22.30;68.80;;;;;;2553998;54;20919;-72
2023/06/23 04:26:33;;;;;;;9.27;7.30;;;22.30;68.90;;;;;;2553462;54;21361;-74
2023/06/23 04:29:03;;;;;;;8.52;7.18;;;22.30;68.90;;;;;;2553934;54;21808;-73
2023/06/23 04:31:29;;;;;;;8.15;6.43;;;22.30;68.90;;;;;;2553657;54;21690;-73
2023/06/23 04:33:56;;;;;;;10.15;7.18;;;22.30;68.90;;;;;;2311820;55;21011;-72
2023/06/23 04:36:22;;;;;;;9.45;7.75;;;22.30;68.90;;;;;;2552893;54;21410;-73
2023/06/23 04:38:52;;;;;;;9.30;7.53;;;22.30;68.90;;;;;;2295893;55;20957;-73
2023/06/23 04:41:19;;;;;;;7.62;5.75;;;22.30;69.10;;;;;;2300966;55;20945;-73
2023/06/23 04:43:46;;;;;;;10.50;8.30;;;22.30;69.00;;;;;;2544186;54;20994;-74
2023/06/23 04:46:24;;;;;;;9.50;7.20;;;22.30;69.00;;;;;;2553029;54;21831;-73
2023/06/23 04:48:54;;;;;;;10.07;8.32;;;22.30;69.00;;;;;;2524437;54;20991;-73
2023/06/23 04:51:25;;;;;;;13.93;9.55;;;22.30;69.00;;;;;;2552290;54;20955;-73
2023/06/23 04:53:59;;;;;;;12.50;9.70;;;22.30;69.00;;;;;;2553392;54;20926;-74
2023/06/23 04:56:28;;;;;;;11.23;8.85;;;22.30;69.00;;;;;;2539565;54;20925;-73
2023/06/23 04:58:58;;;;;;;12.80;10.77;;;22.30;69.10;;;;;;2539416;54;20980;-73
2023/06/23 05:01:27;;;;;;;13.88;10.82;;;22.30;69.00;;;;;;2524947;54;20990;-75
2023/06/23 05:03:54;;;;;;;10.77;9.02;;;22.30;68.90;;;;;;2289244;55;21130;-72
2023/06/23 05:06:23;;;;;;;14.07;11.40;;;22.30;69.00;;;;;;2519981;55;20923;-76
2023/06/23 05:08:50;;;;;;;12.85;9.18;;;22.30;68.90;;;;;;2519566;55;21114;-73
2023/06/23 05:11:17;;;;;;;13.93;11.02;;;22.30;69.00;;;;;;2520729;55;20922;-73
2023/06/23 05:13:44;;;;;;;13.62;11.68;;;22.30;69.00;;;;;;2517888;54;20958;-75
2023/06/23 05:16:14;;;;;;;16.83;12.98;;;22.30;69.00;;;;;;2289225;56;20911;-73
2023/06/23 05:18:41;;;;;;;12.98;10.98;;;22.30;69.00;;;;;;2520223;55;20970;-76
2023/06/23 05:21:08;;;;;;;13.85;11.18;;;22.30;69.00;;;;;;2521031;55;20933;-73
2023/06/23 05:23:37;;;;;;;12.32;10.60;;;22.30;69.00;;;;;;2286992;55;20942;-72
2023/06/23 05:26:11;;;;;;;12.37;10.07;;;22.40;69.10;;;;;;2550180;54;20920;-74
2023/06/23 05:28:38;;;;;;;11.23;9.23;;;22.40;69.10;;;;;;2553174;54;21369;-74
2023/06/23 05:31:07;;;;;;;12.05;10.07;;;22.30;68.90;;;;;;2553249;54;20971;-73
2023/06/23 05:33:36;;;;;;;10.75;8.50;;;22.40;68.90;;;;;;2526073;54;20941;-73
2023/06/23 05:36:03;;;;;;;9.10;7.68;;;22.40;68.80;;;;;;2532882;54;21012;-72
2023/06/23 05:38:31;;;;;;;12.90;10.75;;;22.40;68.80;;;;;;2307810;55;20923;-72
2023/06/23 05:40:58;;;;;;;11.80;9.75;;;22.40;68.70;;;;;;2553337;54;20940;-73
2023/06/23 05:43:25;;;;;;;11.40;9.07;;;22.40;68.60;;;;;;2553674;54;20931;-73
2023/06/23 05:45:52;;;;;;;11.85;9.43;;;22.40;68.60;;;;;;2553262;54;22002;-73
2023/06/23 05:48:28;;;;;;;10.27;9.07;;;22.40;68.60;;;;;;2313681;55;20943;-73
2023/06/23 05:50:55;;;;;;;13.82;9.40;;;22.40;68.40;;;;;;2553495;54;20944;-71
2023/06/23 05:53:25;;;;;;;10.05;8.93;;;22.40;68.60;;;;;;2313425;55;20959;-74
2023/06/23 05:57:47;;;;;;;9.15;7.10;;;22.40;68.50;;;;;;2553352;54;21079;-75
2023/06/23 06:00:14;;;;;;;8.75;7.22;;;22.40;68.10;;;;;;2544810;54;21837;-73
2023/06/23 06:02:44;;;;;;;11.07;8.77;;;22.30;68.30;;;;;;2533477;54;21880;-74
2023/06/23 06:05:13;;;;;;;11.00;8.80;;;22.30;68.30;;;;;;2528621;54;20956;-73
2023/06/23 06:07:39;;;;;;;12.45;10.07;;;22.40;68.50;;;;;;2553174;54;21793;-74
2023/06/23 06:10:07;;;;;;;11.73;9.77;;;22.30;68.40;;;;;;2313539;55;20948;-75
2023/06/23 06:12:34;;;;;;;8.15;6.75;;;22.30;68.40;;;;;;2313461;55;21034;-76
2023/06/23 06:15:02;;;;;;;9.35;7.82;;;22.30;68.50;;;;;;2553461;54;21564;-72
2023/06/23 06:17:29;;;;;;;9.80;7.35;;;22.30;68.50;;;;;;2553158;54;21023;-74
2023/06/23 06:19:57;;;;;;;10.25;8.75;;;22.30;68.50;;;;;;2313835;55;21501;-74
2023/06/23 06:22:32;;;;;;;10.10;7.05;;;22.30;68.50;;;;;;2286333;56;21799;-73
2023/06/23 06:24:59;;;;;;;10.55;7.40;;;22.30;68.50;;;;;;2521087;55;20962;-73
2023/06/23 06:27:27;;;;;;;11.93;8.40;;;22.30;68.50;;;;;;2286335;55;21018;-73
2023/06/23 06:29:57;;;;;;;11.30;8.52;;;22.30;68.50;;;;;;2520159;55;20958;-74
2023/06/23 06:32:24;;;;;;;8.82;7.03;;;22.30;68.50;;;;;;2520438;55;20990;-74
2023/06/23 06:34:52;;;;;;;7.68;6.15;;;22.40;68.70;;;;;;2520659;55;21738;-76
2023/06/23 06:37:18;;;;;;;7.10;5.82;;;22.40;68.70;;;;;;2520561;55;21485;-76
2023/06/23 06:39:47;;;;;;;8.30;6.18;;;22.40;68.60;;;;;;2520626;55;21006;-75
2023/06/23 06:42:14;;;;;;;7.97;5.47;;;22.40;68.50;;;;;;2467195;55;3034601;-74
2023/06/23 06:44:40;;;;;;;8.35;7.15;;;22.40;68.50;;;;;;2286899;55;20966;-74
2023/06/23 06:47:07;;;;;;;9.80;8.07;;;22.40;68.50;;;;;;2521065;55;20942;-74
2023/06/23 06:49:33;;;;;;;10.95;8.07;;;22.40;68.40;;;;;;2286741;55;20982;-75
2023/06/23 06:52:00;;;;;;;7.15;6.03;;;22.40;68.40;;;;;;2286518;55;21853;-73
2023/06/23 06:54:26;;;;;;;8.88;7.30;;;22.40;68.40;;;;;;2520802;55;20976;-74
2023/06/23 06:56:54;;;;;;;8.43;6.87;;;22.40;68.40;;;;;;2519138;55;21026;-74
2023/06/23 06:59:21;;;;;;;8.43;6.95;;;22.40;69.10;;;;;;2520945;55;21010;-74
2023/06/23 07:01:48;;;;;;;9.30;6.97;;;22.40;68.30;;;;;;2289466;55;21004;-74
2023/06/23 07:04:16;;;;;;;6.53;4.82;;;22.40;68.20;;;;;;2283754;55;21012;-75
2023/06/23 07:06:42;;;;;;;8.18;6.05;;;22.40;69.00;;;;;;2286332;55;21435;-74
2023/06/23 07:09:08;;;;;;;6.60;5.60;;;22.40;68.30;;;;;;2521159;55;21002;-73
2023/06/23 07:11:38;;;;;;;9.70;7.10;;;22.50;68.40;;;;;;2286790;55;20958;-73
2023/06/23 07:14:06;;;;;;;9.23;6.78;;;22.50;68.40;;;;;;2521285;55;20930;-73
2023/06/23 07:16:36;;;;;;;11.85;7.78;;;22.50;68.30;;;;;;2520578;55;21858;-73
2023/06/23 07:19:02;;;;;;;7.32;5.65;;;22.50;68.30;;;;;;2517719;55;21766;-75
2023/06/23 07:21:28;;;;;;;10.10;7.53;;;22.50;68.30;;;;;;2283755;55;21003;-73
2023/06/23 07:23:56;;;;;;;9.45;7.43;;;22.50;68.30;;;;;;2286484;55;21560;-73
2023/06/23 07:26:24;;;;;;;8.85;7.10;;;22.50;68.30;;;;;;2286832;55;21033;-74
2023/06/23 07:28:51;;;;;;;10.20;7.55;;;22.50;68.10;;;;;;2520607;55;21082;-75
2023/06/23 07:31:18;;;;;;;7.78;6.57;;;22.50;68.00;;;;;;2287483;55;20982;-74
2023/06/23 07:33:47;;;;;;;9.05;7.15;;;22.50;68.00;;;;;;2286887;55;20950;-74
2023/06/23 07:36:14;;;;;;;8.48;6.43;;;22.50;68.00;;;;;;2286686;55;21801;-75
2023/06/23 07:38:42;;;;;;;9.05;6.85;;;22.50;68.00;;;;;;2287169;55;20970;-74
2023/06/23 07:41:08;;;;;;;9.23;6.90;;;22.60;68.10;;;;;;2287550;55;21400;-73
2023/06/23 07:43:35;;;;;;;8.60;6.97;;;22.60;68.10;;;;;;2520977;55;21013;-74
2023/06/23 07:46:01;;;;;;;9.13;6.75;;;22.60;68.00;;;;;;2286338;55;21001;-74
2023/06/23 07:48:28;;;;;;;9.35;7.00;;;22.60;68.00;;;;;;2287404;55;20948;-74
2023/06/23 07:50:55;;;;;;;9.68;7.82;;;22.60;68.00;;;;;;2520728;54;21759;-74
2023/06/23 07:53:22;;;;;;;7.47;6.35;;;22.60;68.00;;;;;;2284615;56;21054;-74
2023/06/23 07:55:49;;;;;;;8.05;5.68;;;22.60;68.10;;;;;;2519539;55;21018;-74
2023/06/23 07:58:16;;;;;;;8.13;6.68;;;22.70;68.30;;;;;;2519605;55;20994;-73
2023/06/23 08:00:43;;;;;;;8.25;6.72;;;22.70;68.30;;;;;;2518589;55;21043;-74
2023/06/23 08:03:11;;;;;;;11.60;7.60;;;22.70;68.30;;;;;;2521338;54;21019;-73
2023/06/23 08:05:38;;;;;;;11.27;6.37;;;22.70;68.00;;;;;;2521145;55;20956;-73
2023/06/23 08:08:05;;;;;;;9.55;7.57;;;22.70;68.00;;;;;;2521746;55;20955;-74
2023/06/23 08:10:31;;;;;;;7.60;5.78;;;22.80;68.10;;;;;;2490535;55;21322;-74
2023/06/23 08:12:58;;;;;;;8.40;6.60;;;22.80;68.10;;;;;;2520727;54;21006;-74
2023/06/23 08:16:16;;;;;;;6.90;5.55;;;22.90;68.20;;;;;;2286216;56;20962;-75
2023/06/23 08:18:46;;;;;;;5.90;4.55;;;22.90;67.80;;;;;;2286181;55;20961;-74
2023/06/23 08:21:12;;;;;;;11.60;9.35;;;23.00;68.30;;;;;;2286451;56;20929;-74
2023/06/23 08:23:40;;;;;;;12.55;9.80;;;23.00;68.40;;;;;;2519843;54;21276;-74
2023/06/23 08:26:10;;;;;;;12.77;9.65;;;23.00;68.20;;;;;;2284355;56;20926;-73
2023/06/23 08:28:36;;;;;;;12.02;8.82;;;23.10;68.20;;;;;;2518251;55;21445;-75
2023/06/23 08:31:03;;;;;;;11.40;7.03;;;23.10;68.20;;;;;;2519715;55;20954;-73
2023/06/23 08:33:29;;;;;;;8.35;6.28;;;23.10;68.10;;;;;;2264075;56;20963;-74
2023/06/23 08:35:55;;;;;;;9.63;6.70;;;23.20;68.20;;;;;;2498683;55;20966;-74
2023/06/23 08:38:23;;;;;;;9.18;6.70;;;23.20;68.20;;;;;;2289213;56;20984;-76
2023/06/23 08:40:51;;;;;;;7.55;6.47;;;23.30;68.30;;;;;;2286661;56;21454;-74
2023/06/23 08:43:17;;;;;;;7.15;5.78;;;23.30;68.20;;;;;;2520100;55;20960;-75
2023/06/23 08:45:45;;;;;;;8.27;6.07;;;23.40;68.20;;;;;;2519618;55;20931;-73
2023/06/23 08:48:11;;;;;;;6.90;4.97;;;23.40;68.10;;;;;;2286010;55;21696;-75
2023/06/23 08:50:38;;;;;;;6.68;5.62;;;23.40;68.00;;;;;;2520041;55;20989;-73
2023/06/23 08:53:06;;;;;;;8.02;5.82;;;23.50;67.90;;;;;;2519663;54;20979;-74
2023/06/23 08:55:33;;;;;;;6.97;5.72;;;23.60;67.60;;;;;;2520667;55;20982;-73
2023/06/23 08:58:01;;;;;;;6.57;5.18;;;23.60;67.30;;;;;;2520639;55;20926;-74
2023/06/23 09:00:27;;;;;;;8.10;5.65;;;23.70;67.10;;;;;;2286423;55;20954;-74
2023/06/23 09:02:57;;;;;;;8.10;6.40;;;23.80;67.00;;;;;;2287110;55;21022;-75
2023/06/23 09:05:24;;;;;;;8.35;6.10;;;23.80;66.80;;;;;;2520528;55;20926;-75
2023/06/23 09:07:50;;;;;;;8.68;6.45;;;23.80;66.80;;;;;;2286581;55;20946;-74
2023/06/23 09:10:18;;;;;;;6.70;5.57;;;23.90;66.90;;;;;;2521132;55;20998;-73
2023/06/23 09:13:19;;;;;;;7.15;5.55;;;23.90;66.90;;;;;;2519591;55;20942;-75
2023/06/23 09:15:46;;;;;;;7.18;4.90;;;23.90;65.50;;;;;;2519691;55;21097;-73
2023/06/23 09:18:25;;;;;;;6.40;4.93;;;24.00;66.40;;;;;;2520455;55;20962;-74
2023/06/23 09:20:52;;;;;;;6.87;4.62;;;24.00;66.40;;;;;;2286949;55;20997;-74
2023/06/23 09:23:20;;;;;;;6.00;4.37;;;24.00;66.40;;;;;;2286663;55;20985;-76
2023/06/23 09:25:50;;;;;;;5.37;4.05;;;24.10;66.60;;;;;;2516115;55;20965;-73
2023/06/23 09:28:36;;;;;;;5.45;4.28;;;24.10;66.40;;;;;;2519443;55;20962;-74
2023/06/23 09:31:18;;;;;;;5.35;4.07;;;24.20;65.70;;;;;;2521424;55;21065;-76
2023/06/23 09:33:52;;;;;;;5.87;3.85;;;24.20;65.40;;;;;;2521480;54;21654;-73
2023/06/23 09:36:19;;;;;;;;;;;24.30;65.90;;;;;;2316699;55;20975;-74
2023/06/23 09:38:49;;;;;;;5.53;3.55;;;24.40;65.50;;;;;;2313475;55;20103;-74
2023/06/23 09:41:17;;;;;;;4.95;3.87;;;24.40;66.10;;;;;;2553350;54;20999;-74
2023/06/23 09:43:50;;;;;;;6.95;4.10;;;24.50;65.90;;;;;;2313209;55;20951;-73
2023/06/23 09:46:17;;;;;;;5.20;3.72;;;24.50;65.70;;;;;;2553460;54;20947;-73
2023/06/23 09:48:44;;;;;;;4.30;3.35;;;24.60;65.70;;;;;;2312935;55;20974;-74
2023/06/23 09:51:11;;;;;;;5.00;3.78;;;24.60;65.50;;;;;;2553629;54;20991;-74
2023/06/23 09:53:39;;;;;;;5.53;3.47;;;24.70;65.50;;;;;;2313622;55;21563;-74
2023/06/23 09:56:07;;;;;;;5.25;3.67;;;24.70;65.20;;;;;;2553933;54;20908;-74
2023/06/23 09:58:38;;;;;;;4.93;3.60;;;24.80;65.20;;;;;;2553571;54;20948;-74
2023/06/23 10:01:09;;;;;;;5.55;3.53;;;24.80;64.60;;;;;;2554464;54;20923;-74
2023/06/23 10:03:55;;;;;;;6.15;3.80;;;24.90;64.50;;;;;;2552234;54;20992;-74
2023/06/23 10:06:37;;;;;;;6.47;3.70;;;24.90;63.30;;;;;;2553604;54;21003;-74
2023/06/23 10:09:10;;;;;;;4.45;3.33;;;25.00;63.20;;;;;;2313934;55;20912;-74
2023/06/23 10:11:37;;;;;;;13.27;7.20;;;25.00;64.10;;;;;;2552802;54;20939;-73
2023/06/23 10:14:06;;;;;;;11.12;6.40;;;25.00;64.10;;;;;;2554097;54;20924;-75
2023/06/23 10:16:35;;;;;;;6.75;4.57;;;25.10;64.00;;;;;;2552766;54;20998;-73
2023/06/23 10:19:02;;;;;;;4.95;3.78;;;25.10;63.80;;;;;;2553707;54;20991;-73
2023/06/23 10:21:30;;;;;;;7.05;3.87;;;25.10;63.70;;;;;;2535564;54;21701;-74
2023/06/23 10:24:04;;;;;;;4.80;3.40;;;25.10;63.60;;;;;;2543395;54;21037;-73
2023/06/23 10:26:34;;;;;;;4.85;3.45;;;25.20;63.20;;;;;;2313292;55;21389;-73
2023/06/23 10:29:11;;;;;;;4.80;3.58;;;25.20;63.70;;;;;;2313838;55;20968;-74
2023/06/23 10:31:38;;;;;;;5.37;3.20;;;25.20;63.60;;;;;;2552015;54;21011;-76
2023/06/23 10:34:05;;;;;;;4.62;3.20;;;25.20;63.60;;;;;;2313776;55;21389;-73
2023/06/23 10:36:31;;;;;;;4.12;2.97;;;25.30;63.40;;;;;;2312992;55;21469;-75
2023/06/23 10:39:04;;;;;;;4.82;3.25;;;25.30;63.20;;;;;;2553634;54;20955;-74
2023/06/23 10:41:30;;;;;;;4.47;3.00;;;25.40;62.80;;;;;;2313887;55;20979;-74
2023/06/23 10:43:57;;;;;;;4.18;2.70;;;25.40;63.00;;;;;;2536941;54;20929;-74
2023/06/23 10:46:24;;;;;;;3.92;2.80;;;25.40;62.80;;;;;;2541837;54;21700;-74
2023/06/23 10:48:50;;;;;;;4.00;2.47;;;25.40;62.40;;;;;;2552487;54;21757;-75
2023/06/23 10:51:17;;;;;;;4.32;2.62;;;25.50;62.20;;;;;;2537677;54;21572;-74
2023/06/23 10:54:05;;;;;;;4.95;2.78;;;25.50;62.20;;;;;;2539687;54;21111;-73
2023/06/23 10:56:35;;;;;;;5.47;3.00;;;25.50;60.70;;;;;;2312492;55;20970;-73
2023/06/23 10:59:51;;;;;;;3.90;2.30;;;25.50;61.60;;;;;;2553155;54;20928;-74
2023/06/23 11:02:17;;;;;;;3.78;2.00;;;25.60;60.80;;;;;;2313935;55;20932;-73
2023/06/23 11:04:55;;;;;;;3.70;2.15;;;25.60;61.80;;;;;;2553153;54;20976;-75
2023/06/23 11:07:21;;;;;;;3.53;2.20;;;25.70;60.90;;;;;;2552790;54;20932;-76
2023/06/23 11:10:33;;;;;;;3.35;2.00;;;25.70;61.30;;;;;;2312859;55;20972;-76
2023/06/23 11:13:12;;;;;;;3.10;1.90;;;25.70;59.60;;;;;;2313503;55;20955;-75
2023/06/23 11:15:47;;;;;;;3.53;2.05;;;25.80;60.00;;;;;;2293518;56;20962;-74
2023/06/23 11:18:20;;;;;;;3.92;1.87;;;25.80;60.80;;;;;;2552893;54;20967;-73
2023/06/23 11:20:47;;;;;;;3.00;1.80;;;25.90;60.30;;;;;;2313082;55;21451;-74
2023/06/23 11:23:13;;;;;;;3.10;1.90;;;25.90;60.70;;;;;;2553988;54;20916;-74
2023/06/23 11:25:47;;;;;;;3.03;1.85;;;26.00;60.50;;;;;;2313303;55;21219;-76
2023/06/23 11:28:36;;;;;;;3.42;2.05;;;26.00;59.60;;;;;;2314178;55;21730;-75
2023/06/23 11:31:27;;;;;;;3.42;1.98;;;26.00;59.50;;;;;;2553846;54;20916;-76
2023/06/23 11:34:02;;;;;;;3.53;1.98;;;26.10;58.80;;;;;;2313442;55;21023;-75
2023/06/23 11:36:31;;;;;;;3.00;1.83;;;26.20;59.20;;;;;;2553190;54;21086;-74
2023/06/23 11:39:00;;;;;;;4.12;2.40;;;26.20;59.70;;;;;;2313827;55;20979;-74
2023/06/23 11:41:28;;;;;;;4.00;2.30;;;26.20;59.40;;;;;;2553088;54;20943;-74
2023/06/23 11:43:58;;;;;;;3.65;2.10;;;26.30;59.80;;;;;;2553097;54;21701;-74
2023/06/23 11:46:24;;;;;;;3.35;2.08;;;26.30;59.30;;;;;;2553138;54;21003;-75
2023/06/23 11:48:51;;;;;;;3.50;2.12;;;26.30;59.60;;;;;;2310665;55;21026;-76
2023/06/23 11:51:17;;;;;;;3.30;2.15;;;26.50;59.60;;;;;;2532941;54;20943;-74
2023/06/23 11:53:46;;;;;;;3.55;2.45;;;26.40;59.30;;;;;;2540336;54;20973;-74
2023/06/23 11:56:17;;;;;;;3.67;2.30;;;26.50;58.90;;;;;;2302964;55;20967;-76
2023/06/23 11:58:51;;;;;;;4.10;2.22;;;26.50;58.50;;;;;;2552842;54;20999;-75
2023/06/23 12:01:19;;;;;;;4.15;2.17;;;26.60;58.20;;;;;;2313224;55;20944;-74
2023/06/23 12:03:52;;;;;;;3.53;2.17;;;26.60;58.70;;;;;;2312422;55;20948;-74
2023/06/23 12:06:20;;;;;;;3.30;2.15;;;26.60;57.90;;;;;;2552858;54;20923;-74
2023/06/23 12:08:49;;;;;;;4.00;2.33;;;26.60;58.50;;;;;;2552381;54;20948;-73
2023/06/23 12:11:19;;;;;;;3.10;1.90;;;26.70;58.40;;;;;;2552988;54;21035;-74
2023/06/23 12:13:47;;;;;;;3.35;2.20;;;26.70;58.10;;;;;;2312395;55;20995;-73
2023/06/23 12:16:13;;;;;;;4.03;2.50;;;26.80;58.60;;;;;;2554270;54;21029;-75
2023/06/23 12:18:59;;;;;;;3.50;2.50;;;26.80;58.40;;;;;;2313142;55;20972;-75
2023/06/23 12:21:26;;;;;;;3.03;1.98;;;26.80;56.90;;;;;;2552800;54;20923;-74
2023/06/23 12:23:53;;;;;;;4.32;2.40;;;26.90;58.40;;;;;;2313420;55;21048;-75
2023/06/23 12:26:22;;;;;;;3.62;2.15;;;26.90;58.70;;;;;;2312796;55;20964;-75
2023/06/23 12:28:49;;;;;;;3.83;1.92;;;27.00;58.20;;;;;;2309462;55;20977;-74
2023/06/23 12:31:27;;;;;;;4.50;2.37;;;27.10;58.30;;;;;;2297018;55;21523;-75
2023/06/23 12:33:59;;;;;;;3.30;2.10;;;27.20;56.90;;;;;;2552866;54;20944;-74
2023/06/23 12:36:25;;;;;;;3.72;2.12;;;27.20;57.90;;;;;;2312907;55;20939;-75
2023/06/23 12:38:56;;;;;;;3.53;2.05;;;27.20;57.70;;;;;;2552315;54;21576;-74
2023/06/23 12:41:24;;;;;;;3.00;1.95;;;27.20;57.60;;;;;;2552282;54;21032;-74
2023/06/23 12:43:54;;;;;;;3.30;1.75;;;27.20;57.30;;;;;;2552872;54;20924;-75
2023/06/23 12:46:24;;;;;;;3.45;2.10;;;27.30;56.90;;;;;;2552682;54;20955;-74
2023/06/23 12:48:54;;;;;;;3.40;2.05;;;27.30;56.80;;;;;;2312663;55;20943;-73
2023/06/23 12:51:36;;;;;;;3.50;2.03;;;27.40;57.20;;;;;;2312523;55;20951;-74
2023/06/23 12:54:03;;;;;;;3.20;1.95;;;27.40;55.80;;;;;;2552952;54;21008;-74
2023/06/23 12:56:29;;;;;;;2.97;1.83;;;27.50;56.80;;;;;;2553014;54;21686;-76
2023/06/23 12:58:57;;;;;;;3.15;2.00;;;27.50;56.70;;;;;;2313435;55;20963;-74
2023/06/23 13:01:24;;;;;;;3.37;2.05;;;27.60;56.70;;;;;;2517519;54;21072;-75
2023/06/23 13:03:51;;;;;;;3.22;1.90;;;27.70;56.60;;;;;;2536141;54;21369;-75
2023/06/23 13:06:17;;;;;;;4.00;2.45;;;27.70;56.70;;;;;;2553774;54;20947;-74
2023/06/23 13:08:45;;;;;;;3.80;2.10;;;27.80;56.60;;;;;;2532650;54;20957;-75